sensor_id;sensor_type;location;lat;lon;timestamp;P1;durP1;ratioP1;P2;durP2;ratioP2
77026;SDS011;65956;52.986;17.490;2023-04-24T00:00:15;29.60;;;19.60;;
77026;SDS011;65956;52.986;17.490;2023-04-24T00:03:03;34.60;;;22.50;;
77026;SDS011;65956;52.986;17.490;2023-04-24T00:05:29;25.40;;;18.50;;
77026;SDS011;65956;52.986;17.490;2023-04-24T00:07:55;25.60;;;18.40;;
77026;SDS011;65956;52.986;17.490;2023-04-24T00:10:21;28.50;;;21.00;;
77026;SDS011;65956;52.986;17.490;2023-04-24T00:12:47;25.90;;;19.10;;
77026;SDS011;65956;52.986;17.490;2023-04-24T00:15:13;28.40;;;21.10;;
77026;SDS011;65956;52.986;17.490;2023-04-24T00:17:39;29.80;;;21.20;;
77026;SDS011;65956;52.986;17.490;2023-04-24T00:20:05;31.70;;;21.00;;
77026;SDS011;65956;52.986;17.490;2023-04-24T00:22:32;32.70;;;20.10;;
77026;SDS011;65956;52.986;17.490;2023-04-24T00:24:59;31.10;;;21.70;;
77026;SDS011;65956;52.986;17.490;2023-04-24T00:27:25;29.70;;;20.50;;
77026;SDS011;65956;52.986;17.490;2023-04-24T00:29:51;30.80;;;20.80;;
77026;SDS011;65956;52.986;17.490;2023-04-24T00:32:17;28.10;;;20.10;;
77026;SDS011;65956;52.986;17.490;2023-04-24T00:34:43;34.10;;;24.30;;
77026;SDS011;65956;52.986;17.490;2023-04-24T00:37:09;34.00;;;23.00;;
77026;SDS011;65956;52.986;17.490;2023-04-24T00:39:36;31.00;;;21.60;;
77026;SDS011;65956;52.986;17.490;2023-04-24T00:42:02;34.90;;;22.30;;
77026;SDS011;65956;52.986;17.490;2023-04-24T00:44:28;32.60;;;19.50;;
77026;SDS011;65956;52.986;17.490;2023-04-24T00:46:55;26.20;;;16.30;;
77026;SDS011;65956;52.986;17.490;2023-04-24T00:49:21;21.80;;;14.50;;
77026;SDS011;65956;52.986;17.490;2023-04-24T00:51:48;18.40;;;12.40;;
77026;SDS011;65956;52.986;17.490;2023-04-24T00:54:17;23.80;;;14.00;;
77026;SDS011;65956;52.986;17.490;2023-04-24T00:56:44;30.60;;;15.70;;
77026;SDS011;65956;52.986;17.490;2023-04-24T00:59:11;31.10;;;15.70;;
77026;SDS011;65956;52.986;17.490;2023-04-24T01:01:38;25.50;;;14.60;;
77026;SDS011;65956;52.986;17.490;2023-04-24T01:04:07;23.20;;;13.90;;
77026;SDS011;65956;52.986;17.490;2023-04-24T01:06:35;22.60;;;13.30;;
77026;SDS011;65956;52.986;17.490;2023-04-24T01:09:05;21.30;;;14.40;;
77026;SDS011;65956;52.986;17.490;2023-04-24T01:11:36;22.60;;;14.30;;
77026;SDS011;65956;52.986;17.490;2023-04-24T01:14:04;22.50;;;15.30;;
77026;SDS011;65956;52.986;17.490;2023-04-24T01:16:30;23.70;;;15.50;;
77026;SDS011;65956;52.986;17.490;2023-04-24T01:18:56;25.10;;;16.30;;
77026;SDS011;65956;52.986;17.490;2023-04-24T01:21:22;24.80;;;17.20;;
77026;SDS011;65956;52.986;17.490;2023-04-24T01:23:53;22.20;;;15.70;;
77026;SDS011;65956;52.986;17.490;2023-04-24T01:26:19;23.90;;;16.80;;
77026;SDS011;65956;52.986;17.490;2023-04-24T01:28:46;24.20;;;18.00;;
77026;SDS011;65956;52.986;17.490;2023-04-24T01:31:12;24.80;;;17.80;;
77026;SDS011;65956;52.986;17.490;2023-04-24T01:33:41;26.20;;;18.80;;
77026;SDS011;65956;52.986;17.490;2023-04-24T01:36:08;25.70;;;18.40;;
77026;SDS011;65956;52.986;17.490;2023-04-24T01:38:37;30.60;;;22.60;;
77026;SDS011;65956;52.986;17.490;2023-04-24T01:41:03;35.20;;;25.70;;
77026;SDS011;65956;52.986;17.490;2023-04-24T01:43:29;26.60;;;20.70;;
77026;SDS011;65956;52.986;17.490;2023-04-24T01:45:57;25.10;;;18.00;;
77026;SDS011;65956;52.986;17.490;2023-04-24T01:48:23;21.50;;;15.70;;
77026;SDS011;65956;52.986;17.490;2023-04-24T01:50:49;22.90;;;15.80;;
77026;SDS011;65956;52.986;17.490;2023-04-24T01:53:15;20.60;;;14.80;;
77026;SDS011;65956;52.986;17.490;2023-04-24T01:55:42;21.80;;;16.50;;
77026;SDS011;65956;52.986;17.490;2023-04-24T01:58:08;26.10;;;18.50;;
77026;SDS011;65956;52.986;17.490;2023-04-24T02:00:34;24.20;;;16.50;;
77026;SDS011;65956;52.986;17.490;2023-04-24T02:03:00;24.70;;;17.90;;
77026;SDS011;65956;52.986;17.490;2023-04-24T02:05:27;24.50;;;18.90;;
77026;SDS011;65956;52.986;17.490;2023-04-24T02:07:55;24.30;;;17.80;;
77026;SDS011;65956;52.986;17.490;2023-04-24T02:10:21;24.00;;;17.70;;
77026;SDS011;65956;52.986;17.490;2023-04-24T02:12:47;25.10;;;17.90;;
77026;SDS011;65956;52.986;17.490;2023-04-24T02:15:14;25.60;;;18.10;;
77026;SDS011;65956;52.986;17.490;2023-04-24T02:17:40;25.20;;;17.40;;
77026;SDS011;65956;52.986;17.490;2023-04-24T02:20:06;25.00;;;18.00;;
77026;SDS011;65956;52.986;17.490;2023-04-24T02:22:33;26.50;;;18.30;;
77026;SDS011;65956;52.986;17.490;2023-04-24T02:25:01;25.50;;;18.30;;
77026;SDS011;65956;52.986;17.490;2023-04-24T02:27:27;25.60;;;18.10;;
77026;SDS011;65956;52.986;17.490;2023-04-24T02:29:53;26.90;;;19.40;;
77026;SDS011;65956;52.986;17.490;2023-04-24T02:32:19;24.50;;;18.70;;
77026;SDS011;65956;52.986;17.490;2023-04-24T02:34:45;25.90;;;16.90;;
77026;SDS011;65956;52.986;17.490;2023-04-24T02:37:12;25.10;;;17.70;;
77026;SDS011;65956;52.986;17.490;2023-04-24T02:39:38;29.60;;;20.40;;
77026;SDS011;65956;52.986;17.490;2023-04-24T02:42:04;31.20;;;20.30;;
77026;SDS011;65956;52.986;17.490;2023-04-24T02:44:30;28.40;;;20.80;;
77026;SDS011;65956;52.986;17.490;2023-04-24T02:46:56;30.40;;;21.00;;
77026;SDS011;65956;52.986;17.490;2023-04-24T02:49:22;27.00;;;19.60;;
77026;SDS011;65956;52.986;17.490;2023-04-24T02:51:48;27.80;;;20.30;;
77026;SDS011;65956;52.986;17.490;2023-04-24T02:54:14;26.20;;;18.60;;
77026;SDS011;65956;52.986;17.490;2023-04-24T02:56:40;24.60;;;19.20;;
77026;SDS011;65956;52.986;17.490;2023-04-24T02:59:07;27.30;;;19.70;;
77026;SDS011;65956;52.986;17.490;2023-04-24T03:01:34;24.50;;;18.00;;
77026;SDS011;65956;52.986;17.490;2023-04-24T03:04:00;24.10;;;18.10;;
77026;SDS011;65956;52.986;17.490;2023-04-24T03:06:27;24.80;;;17.10;;
77026;SDS011;65956;52.986;17.490;2023-04-24T03:08:53;23.00;;;17.00;;
77026;SDS011;65956;52.986;17.490;2023-04-24T03:11:20;22.50;;;15.70;;
77026;SDS011;65956;52.986;17.490;2023-04-24T03:13:46;19.00;;;14.20;;
77026;SDS011;65956;52.986;17.490;2023-04-24T03:16:12;20.10;;;14.90;;
77026;SDS011;65956;52.986;17.490;2023-04-24T03:18:38;21.30;;;15.30;;
77026;SDS011;65956;52.986;17.490;2023-04-24T03:21:04;18.00;;;13.80;;
77026;SDS011;65956;52.986;17.490;2023-04-24T03:23:31;20.10;;;14.40;;
77026;SDS011;65956;52.986;17.490;2023-04-24T03:25:57;20.60;;;15.40;;
77026;SDS011;65956;52.986;17.490;2023-04-24T03:28:24;20.60;;;14.20;;
77026;SDS011;65956;52.986;17.490;2023-04-24T03:31:03;20.60;;;14.90;;
77026;SDS011;65956;52.986;17.490;2023-04-24T03:33:32;21.10;;;14.80;;
77026;SDS011;65956;52.986;17.490;2023-04-24T03:36:00;20.20;;;14.80;;
77026;SDS011;65956;52.986;17.490;2023-04-24T03:38:26;20.90;;;14.20;;
77026;SDS011;65956;52.986;17.490;2023-04-24T03:40:57;19.10;;;14.00;;
77026;SDS011;65956;52.986;17.490;2023-04-24T03:43:39;19.00;;;13.30;;
77026;SDS011;65956;52.986;17.490;2023-04-24T03:46:05;20.10;;;13.40;;
77026;SDS011;65956;52.986;17.490;2023-04-24T03:48:34;20.00;;;13.80;;
77026;SDS011;65956;52.986;17.490;2023-04-24T03:51:01;19.00;;;13.20;;
77026;SDS011;65956;52.986;17.490;2023-04-24T03:53:28;18.90;;;12.60;;
77026;SDS011;65956;52.986;17.490;2023-04-24T03:55:54;17.70;;;12.80;;
77026;SDS011;65956;52.986;17.490;2023-04-24T03:58:21;16.80;;;13.50;;
77026;SDS011;65956;52.986;17.490;2023-04-24T04:00:47;18.10;;;12.00;;
77026;SDS011;65956;52.986;17.490;2023-04-24T04:03:36;17.40;;;12.50;;
77026;SDS011;65956;52.986;17.490;2023-04-24T04:06:02;19.40;;;12.50;;
77026;SDS011;65956;52.986;17.490;2023-04-24T04:08:29;17.30;;;11.90;;
77026;SDS011;65956;52.986;17.490;2023-04-24T04:10:55;18.20;;;12.30;;
77026;SDS011;65956;52.986;17.490;2023-04-24T04:13:22;20.20;;;13.80;;
77026;SDS011;65956;52.986;17.490;2023-04-24T04:15:48;19.10;;;13.10;;
77026;SDS011;65956;52.986;17.490;2023-04-24T04:18:14;18.60;;;12.20;;
77026;SDS011;65956;52.986;17.490;2023-04-24T04:20:41;18.60;;;12.70;;
77026;SDS011;65956;52.986;17.490;2023-04-24T04:23:08;20.00;;;13.00;;
77026;SDS011;65956;52.986;17.490;2023-04-24T04:26:00;17.80;;;13.00;;
77026;SDS011;65956;52.986;17.490;2023-04-24T04:28:37;22.60;;;15.20;;
77026;SDS011;65956;52.986;17.490;2023-04-24T04:31:05;18.50;;;12.80;;
77026;SDS011;65956;52.986;17.490;2023-04-24T04:33:33;17.80;;;12.80;;
77026;SDS011;65956;52.986;17.490;2023-04-24T04:36:00;19.20;;;13.50;;
77026;SDS011;65956;52.986;17.490;2023-04-24T04:38:27;19.00;;;14.20;;
77026;SDS011;65956;52.986;17.490;2023-04-24T04:41:08;23.60;;;15.40;;
77026;SDS011;65956;52.986;17.490;2023-04-24T04:43:34;20.20;;;13.30;;
77026;SDS011;65956;52.986;17.490;2023-04-24T04:46:02;18.00;;;12.00;;
77026;SDS011;65956;52.986;17.490;2023-04-24T04:48:47;17.70;;;11.80;;
77026;SDS011;65956;52.986;17.490;2023-04-24T04:51:14;17.70;;;12.00;;
77026;SDS011;65956;52.986;17.490;2023-04-24T04:53:40;19.30;;;12.00;;
77026;SDS011;65956;52.986;17.490;2023-04-24T04:56:06;16.40;;;12.00;;
77026;SDS011;65956;52.986;17.490;2023-04-24T04:58:40;18.80;;;12.60;;
77026;SDS011;65956;52.986;17.490;2023-04-24T05:01:09;17.80;;;12.60;;
77026;SDS011;65956;52.986;17.490;2023-04-24T05:03:41;16.80;;;12.20;;
77026;SDS011;65956;52.986;17.490;2023-04-24T05:06:09;15.90;;;12.00;;
77026;SDS011;65956;52.986;17.490;2023-04-24T05:08:37;18.10;;;12.20;;
77026;SDS011;65956;52.986;17.490;2023-04-24T05:11:06;17.50;;;12.60;;
77026;SDS011;65956;52.986;17.490;2023-04-24T05:13:32;16.80;;;11.10;;
77026;SDS011;65956;52.986;17.490;2023-04-24T05:15:59;15.00;;;10.70;;
77026;SDS011;65956;52.986;17.490;2023-04-24T05:18:25;15.00;;;10.30;;
77026;SDS011;65956;52.986;17.490;2023-04-24T05:20:51;17.80;;;11.30;;
77026;SDS011;65956;52.986;17.490;2023-04-24T05:23:18;14.00;;;10.20;;
77026;SDS011;65956;52.986;17.490;2023-04-24T05:25:44;16.50;;;11.00;;
77026;SDS011;65956;52.986;17.490;2023-04-24T05:28:12;15.70;;;10.60;;
77026;SDS011;65956;52.986;17.490;2023-04-24T05:30:39;12.90;;;10.30;;
77026;SDS011;65956;52.986;17.490;2023-04-24T05:33:06;13.10;;;9.50;;
77026;SDS011;65956;52.986;17.490;2023-04-24T05:35:33;16.10;;;10.50;;
77026;SDS011;65956;52.986;17.490;2023-04-24T05:38:00;14.40;;;9.70;;
77026;SDS011;65956;52.986;17.490;2023-04-24T05:40:26;12.60;;;8.80;;
77026;SDS011;65956;52.986;17.490;2023-04-24T05:42:52;10.80;;;8.20;;
77026;SDS011;65956;52.986;17.490;2023-04-24T05:45:18;12.50;;;8.00;;
77026;SDS011;65956;52.986;17.490;2023-04-24T05:47:44;10.70;;;7.60;;
77026;SDS011;65956;52.986;17.490;2023-04-24T05:50:11;12.00;;;8.40;;
77026;SDS011;65956;52.986;17.490;2023-04-24T05:52:37;12.40;;;8.30;;
77026;SDS011;65956;52.986;17.490;2023-04-24T05:57:34;13.60;;;8.30;;
77026;SDS011;65956;52.986;17.490;2023-04-24T06:00:02;10.80;;;8.20;;
77026;SDS011;65956;52.986;17.490;2023-04-24T06:02:39;13.50;;;9.00;;
77026;SDS011;65956;52.986;17.490;2023-04-24T06:05:06;16.30;;;13.00;;
77026;SDS011;65956;52.986;17.490;2023-04-24T06:07:33;13.70;;;9.70;;
77026;SDS011;65956;52.986;17.490;2023-04-24T06:10:02;13.00;;;9.40;;
77026;SDS011;65956;52.986;17.490;2023-04-24T06:12:29;15.60;;;10.20;;
77026;SDS011;65956;52.986;17.490;2023-04-24T06:15:00;13.40;;;9.50;;
77026;SDS011;65956;52.986;17.490;2023-04-24T06:17:39;14.30;;;9.00;;
77026;SDS011;65956;52.986;17.490;2023-04-24T06:20:05;13.80;;;9.90;;
77026;SDS011;65956;52.986;17.490;2023-04-24T06:22:33;15.00;;;9.70;;
77026;SDS011;65956;52.986;17.490;2023-04-24T06:24:59;16.30;;;10.50;;
77026;SDS011;65956;52.986;17.490;2023-04-24T06:27:26;15.00;;;10.90;;
77026;SDS011;65956;52.986;17.490;2023-04-24T06:29:52;14.20;;;9.70;;
77026;SDS011;65956;52.986;17.490;2023-04-24T06:32:23;15.20;;;10.10;;
77026;SDS011;65956;52.986;17.490;2023-04-24T06:34:53;12.10;;;8.50;;
77026;SDS011;65956;52.986;17.490;2023-04-24T06:37:22;13.00;;;10.00;;
77026;SDS011;65956;52.986;17.490;2023-04-24T06:39:48;12.80;;;9.20;;
77026;SDS011;65956;52.986;17.490;2023-04-24T06:42:14;14.60;;;9.70;;
77026;SDS011;65956;52.986;17.490;2023-04-24T06:44:43;13.30;;;9.10;;
77026;SDS011;65956;52.986;17.490;2023-04-24T06:47:10;12.40;;;8.40;;
77026;SDS011;65956;52.986;17.490;2023-04-24T06:49:36;13.40;;;8.90;;
77026;SDS011;65956;52.986;17.490;2023-04-24T06:52:03;13.00;;;8.80;;
77026;SDS011;65956;52.986;17.490;2023-04-24T06:54:30;11.50;;;8.70;;
77026;SDS011;65956;52.986;17.490;2023-04-24T06:56:56;11.90;;;7.80;;
77026;SDS011;65956;52.986;17.490;2023-04-24T06:59:23;12.10;;;7.90;;
77026;SDS011;65956;52.986;17.490;2023-04-24T07:01:50;11.60;;;8.70;;
77026;SDS011;65956;52.986;17.490;2023-04-24T07:04:17;12.20;;;8.60;;
77026;SDS011;65956;52.986;17.490;2023-04-24T07:06:44;13.40;;;9.20;;
77026;SDS011;65956;52.986;17.490;2023-04-24T07:09:11;12.70;;;9.60;;
77026;SDS011;65956;52.986;17.490;2023-04-24T07:11:39;12.60;;;8.60;;
77026;SDS011;65956;52.986;17.490;2023-04-24T07:14:06;13.00;;;8.70;;
77026;SDS011;65956;52.986;17.490;2023-04-24T07:16:33;11.40;;;9.30;;
77026;SDS011;65956;52.986;17.490;2023-04-24T07:18:59;12.80;;;9.00;;
77026;SDS011;65956;52.986;17.490;2023-04-24T07:21:25;12.80;;;9.10;;
77026;SDS011;65956;52.986;17.490;2023-04-24T07:23:52;10.50;;;8.30;;
77026;SDS011;65956;52.986;17.490;2023-04-24T07:26:19;11.00;;;8.50;;
77026;SDS011;65956;52.986;17.490;2023-04-24T07:28:46;12.40;;;7.90;;
77026;SDS011;65956;52.986;17.490;2023-04-24T07:31:12;12.80;;;9.00;;
77026;SDS011;65956;52.986;17.490;2023-04-24T07:33:38;10.10;;;7.60;;
77026;SDS011;65956;52.986;17.490;2023-04-24T07:36:04;10.00;;;7.40;;
77026;SDS011;65956;52.986;17.490;2023-04-24T07:38:30;10.80;;;8.00;;
77026;SDS011;65956;52.986;17.490;2023-04-24T07:40:57;12.30;;;8.30;;
77026;SDS011;65956;52.986;17.490;2023-04-24T07:43:23;10.70;;;7.70;;
77026;SDS011;65956;52.986;17.490;2023-04-24T07:45:49;10.70;;;8.00;;
77026;SDS011;65956;52.986;17.490;2023-04-24T07:48:16;10.90;;;7.70;;
77026;SDS011;65956;52.986;17.490;2023-04-24T07:50:44;11.50;;;8.30;;
77026;SDS011;65956;52.986;17.490;2023-04-24T07:53:10;11.50;;;7.60;;
77026;SDS011;65956;52.986;17.490;2023-04-24T07:55:36;10.80;;;8.30;;
77026;SDS011;65956;52.986;17.490;2023-04-24T07:58:02;11.00;;;7.80;;
77026;SDS011;65956;52.986;17.490;2023-04-24T08:00:29;10.20;;;8.00;;
77026;SDS011;65956;52.986;17.490;2023-04-24T08:02:55;11.70;;;8.30;;
77026;SDS011;65956;52.986;17.490;2023-04-24T08:05:21;10.30;;;7.50;;
77026;SDS011;65956;52.986;17.490;2023-04-24T08:07:47;13.30;;;8.90;;
77026;SDS011;65956;52.986;17.490;2023-04-24T08:10:16;11.60;;;8.40;;
77026;SDS011;65956;52.986;17.490;2023-04-24T08:12:42;11.30;;;8.30;;
77026;SDS011;65956;52.986;17.490;2023-04-24T08:15:08;11.90;;;9.30;;
77026;SDS011;65956;52.986;17.490;2023-04-24T08:17:34;11.20;;;8.80;;
77026;SDS011;65956;52.986;17.490;2023-04-24T08:20:02;10.60;;;8.70;;
77026;SDS011;65956;52.986;17.490;2023-04-24T08:22:31;12.00;;;9.00;;
77026;SDS011;65956;52.986;17.490;2023-04-24T08:25:00;13.20;;;9.10;;
77026;SDS011;65956;52.986;17.490;2023-04-24T08:27:26;12.20;;;8.20;;
77026;SDS011;65956;52.986;17.490;2023-04-24T08:29:53;11.00;;;9.20;;
77026;SDS011;65956;52.986;17.490;2023-04-24T08:32:19;11.60;;;9.50;;
77026;SDS011;65956;52.986;17.490;2023-04-24T08:34:45;10.90;;;9.60;;
77026;SDS011;65956;52.986;17.490;2023-04-24T08:37:11;11.30;;;8.70;;
77026;SDS011;65956;52.986;17.490;2023-04-24T08:39:37;12.90;;;9.10;;
77026;SDS011;65956;52.986;17.490;2023-04-24T08:42:04;11.10;;;8.10;;
77026;SDS011;65956;52.986;17.490;2023-04-24T08:44:34;12.50;;;8.90;;
77026;SDS011;65956;52.986;17.490;2023-04-24T08:47:01;10.60;;;8.40;;
77026;SDS011;65956;52.986;17.490;2023-04-24T08:49:28;10.90;;;8.20;;
77026;SDS011;65956;52.986;17.490;2023-04-24T08:51:55;12.00;;;8.80;;
77026;SDS011;65956;52.986;17.490;2023-04-24T08:54:21;11.50;;;9.40;;
77026;SDS011;65956;52.986;17.490;2023-04-24T08:56:47;10.50;;;7.60;;
77026;SDS011;65956;52.986;17.490;2023-04-24T08:59:15;11.30;;;8.40;;
77026;SDS011;65956;52.986;17.490;2023-04-24T09:01:41;14.40;;;9.40;;
77026;SDS011;65956;52.986;17.490;2023-04-24T09:04:10;13.20;;;9.80;;
77026;SDS011;65956;52.986;17.490;2023-04-24T09:06:40;11.80;;;8.40;;
77026;SDS011;65956;52.986;17.490;2023-04-24T09:09:06;12.20;;;9.70;;
77026;SDS011;65956;52.986;17.490;2023-04-24T09:11:34;12.80;;;10.00;;
77026;SDS011;65956;52.986;17.490;2023-04-24T09:14:00;9.50;;;7.40;;
77026;SDS011;65956;52.986;17.490;2023-04-24T09:16:27;11.50;;;9.10;;
77026;SDS011;65956;52.986;17.490;2023-04-24T09:18:53;10.70;;;8.60;;
77026;SDS011;65956;52.986;17.490;2023-04-24T09:21:22;13.40;;;8.60;;
77026;SDS011;65956;52.986;17.490;2023-04-24T09:23:59;13.00;;;9.10;;
77026;SDS011;65956;52.986;17.490;2023-04-24T09:26:28;11.10;;;8.80;;
77026;SDS011;65956;52.986;17.490;2023-04-24T09:31:23;12.90;;;8.80;;
77026;SDS011;65956;52.986;17.490;2023-04-24T09:36:19;12.30;;;9.50;;
77026;SDS011;65956;52.986;17.490;2023-04-24T09:38:45;11.30;;;8.70;;
77026;SDS011;65956;52.986;17.490;2023-04-24T09:41:13;10.40;;;7.40;;
77026;SDS011;65956;52.986;17.490;2023-04-24T09:43:39;10.50;;;8.40;;
77026;SDS011;65956;52.986;17.490;2023-04-24T09:46:06;13.60;;;8.70;;
77026;SDS011;65956;52.986;17.490;2023-04-24T09:48:35;9.10;;;7.30;;
77026;SDS011;65956;52.986;17.490;2023-04-24T09:51:04;11.60;;;8.20;;
77026;SDS011;65956;52.986;17.490;2023-04-24T09:53:37;12.10;;;9.40;;
77026;SDS011;65956;52.986;17.490;2023-04-24T09:56:07;12.50;;;9.80;;
77026;SDS011;65956;52.986;17.490;2023-04-24T09:58:35;9.00;;;6.50;;
77026;SDS011;65956;52.986;17.490;2023-04-24T10:01:02;12.40;;;8.50;;
77026;SDS011;65956;52.986;17.490;2023-04-24T10:03:31;12.60;;;8.60;;
77026;SDS011;65956;52.986;17.490;2023-04-24T10:05:59;10.20;;;7.80;;
77026;SDS011;65956;52.986;17.490;2023-04-24T10:08:26;11.60;;;9.40;;
77026;SDS011;65956;52.986;17.490;2023-04-24T10:10:58;12.00;;;8.80;;
77026;SDS011;65956;52.986;17.490;2023-04-24T10:13:25;12.40;;;8.20;;
77026;SDS011;65956;52.986;17.490;2023-04-24T10:15:51;11.40;;;8.30;;
77026;SDS011;65956;52.986;17.490;2023-04-24T10:18:18;10.40;;;8.60;;
77026;SDS011;65956;52.986;17.490;2023-04-24T10:20:46;11.50;;;8.80;;
77026;SDS011;65956;52.986;17.490;2023-04-24T10:23:12;11.60;;;8.70;;
77026;SDS011;65956;52.986;17.490;2023-04-24T10:25:38;11.20;;;8.90;;
77026;SDS011;65956;52.986;17.490;2023-04-24T10:28:05;10.00;;;8.20;;
77026;SDS011;65956;52.986;17.490;2023-04-24T10:30:34;12.10;;;9.80;;
77026;SDS011;65956;52.986;17.490;2023-04-24T10:33:01;13.10;;;9.10;;
77026;SDS011;65956;52.986;17.490;2023-04-24T10:35:31;11.30;;;8.60;;
77026;SDS011;65956;52.986;17.490;2023-04-24T10:38:06;11.20;;;8.40;;
77026;SDS011;65956;52.986;17.490;2023-04-24T10:40:35;11.50;;;9.40;;
77026;SDS011;65956;52.986;17.490;2023-04-24T10:43:02;12.80;;;9.80;;
77026;SDS011;65956;52.986;17.490;2023-04-24T10:45:32;10.70;;;8.70;;
77026;SDS011;65956;52.986;17.490;2023-04-24T10:47:59;11.00;;;9.40;;
77026;SDS011;65956;52.986;17.490;2023-04-24T10:50:30;12.90;;;10.10;;
77026;SDS011;65956;52.986;17.490;2023-04-24T10:53:18;11.90;;;9.50;;
77026;SDS011;65956;52.986;17.490;2023-04-24T10:55:50;12.80;;;10.30;;
77026;SDS011;65956;52.986;17.490;2023-04-24T10:58:23;13.90;;;10.30;;
77026;SDS011;65956;52.986;17.490;2023-04-24T11:00:57;11.90;;;10.10;;
77026;SDS011;65956;52.986;17.490;2023-04-24T11:03:31;11.30;;;9.90;;
77026;SDS011;65956;52.986;17.490;2023-04-24T11:06:01;12.40;;;10.30;;
77026;SDS011;65956;52.986;17.490;2023-04-24T11:08:43;11.50;;;8.80;;
77026;SDS011;65956;52.986;17.490;2023-04-24T11:11:14;12.50;;;8.90;;
77026;SDS011;65956;52.986;17.490;2023-04-24T11:16:21;12.60;;;8.30;;
77026;SDS011;65956;52.986;17.490;2023-04-24T11:21:48;11.10;;;8.00;;
77026;SDS011;65956;52.986;17.490;2023-04-24T11:26:51;10.80;;;8.30;;
77026;SDS011;65956;52.986;17.490;2023-04-24T11:29:22;10.20;;;8.30;;
77026;SDS011;65956;52.986;17.490;2023-04-24T11:34:47;11.40;;;8.10;;
77026;SDS011;65956;52.986;17.490;2023-04-24T11:37:16;10.30;;;7.80;;
77026;SDS011;65956;52.986;17.490;2023-04-24T11:39:42;10.60;;;7.20;;
77026;SDS011;65956;52.986;17.490;2023-04-24T11:42:08;8.20;;;5.90;;
77026;SDS011;65956;52.986;17.490;2023-04-24T11:44:35;7.60;;;4.50;;
77026;SDS011;65956;52.986;17.490;2023-04-24T11:47:04;6.30;;;4.60;;
77026;SDS011;65956;52.986;17.490;2023-04-24T13:36:34;7.20;;;6.40;;
77026;SDS011;65956;52.986;17.490;2023-04-24T13:39:01;5.40;;;4.80;;
77026;SDS011;65956;52.986;17.490;2023-04-24T13:41:30;5.20;;;3.70;;
77026;SDS011;65956;52.986;17.490;2023-04-24T13:43:56;4.90;;;3.30;;
77026;SDS011;65956;52.986;17.490;2023-04-24T13:46:22;5.00;;;3.40;;
77026;SDS011;65956;52.986;17.490;2023-04-24T13:48:48;4.30;;;2.90;;
77026;SDS011;65956;52.986;17.490;2023-04-24T13:51:14;4.30;;;3.80;;
77026;SDS011;65956;52.986;17.490;2023-04-24T13:53:40;4.80;;;3.20;;
77026;SDS011;65956;52.986;17.490;2023-04-24T13:56:07;6.40;;;3.10;;
77026;SDS011;65956;52.986;17.490;2023-04-24T13:58:33;4.50;;;3.30;;
77026;SDS011;65956;52.986;17.490;2023-04-24T14:00:59;6.40;;;3.60;;
77026;SDS011;65956;52.986;17.490;2023-04-24T14:03:25;7.20;;;3.40;;
77026;SDS011;65956;52.986;17.490;2023-04-24T14:05:51;15.10;;;9.60;;
77026;SDS011;65956;52.986;17.490;2023-04-24T14:08:17;8.00;;;4.90;;
77026;SDS011;65956;52.986;17.490;2023-04-24T14:10:43;6.40;;;3.70;;
77026;SDS011;65956;52.986;17.490;2023-04-24T14:13:09;6.00;;;3.60;;
77026;SDS011;65956;52.986;17.490;2023-04-24T14:15:35;4.70;;;3.30;;
77026;SDS011;65956;52.986;17.490;2023-04-24T14:18:01;5.50;;;4.10;;
77026;SDS011;65956;52.986;17.490;2023-04-24T14:20:28;4.80;;;3.20;;
77026;SDS011;65956;52.986;17.490;2023-04-24T14:22:54;4.70;;;3.30;;
77026;SDS011;65956;52.986;17.490;2023-04-24T14:25:20;4.90;;;3.40;;
77026;SDS011;65956;52.986;17.490;2023-04-24T14:27:48;4.60;;;3.20;;
77026;SDS011;65956;52.986;17.490;2023-04-24T14:30:14;6.50;;;3.40;;
77026;SDS011;65956;52.986;17.490;2023-04-24T14:32:41;4.70;;;3.50;;
77026;SDS011;65956;52.986;17.490;2023-04-24T14:35:07;4.20;;;2.90;;
77026;SDS011;65956;52.986;17.490;2023-04-24T14:37:33;4.60;;;3.30;;
77026;SDS011;65956;52.986;17.490;2023-04-24T14:39:59;5.00;;;3.70;;
77026;SDS011;65956;52.986;17.490;2023-04-24T14:42:25;5.20;;;3.40;;
77026;SDS011;65956;52.986;17.490;2023-04-24T14:44:52;5.70;;;3.30;;
77026;SDS011;65956;52.986;17.490;2023-04-24T14:47:18;5.20;;;3.50;;
77026;SDS011;65956;52.986;17.490;2023-04-24T14:49:47;6.40;;;4.30;;
77026;SDS011;65956;52.986;17.490;2023-04-24T14:52:13;6.70;;;4.30;;
77026;SDS011;65956;52.986;17.490;2023-04-24T14:54:40;4.70;;;3.70;;
77026;SDS011;65956;52.986;17.490;2023-04-24T14:57:06;6.00;;;3.70;;
77026;SDS011;65956;52.986;17.490;2023-04-24T14:59:32;5.00;;;3.40;;
77026;SDS011;65956;52.986;17.490;2023-04-24T15:01:58;5.10;;;3.40;;
77026;SDS011;65956;52.986;17.490;2023-04-24T15:04:24;5.50;;;3.10;;
77026;SDS011;65956;52.986;17.490;2023-04-24T15:06:54;4.80;;;3.40;;
77026;SDS011;65956;52.986;17.490;2023-04-24T15:09:21;5.60;;;3.30;;
77026;SDS011;65956;52.986;17.490;2023-04-24T15:11:48;5.80;;;3.40;;
77026;SDS011;65956;52.986;17.490;2023-04-24T15:14:14;4.70;;;3.70;;
77026;SDS011;65956;52.986;17.490;2023-04-24T15:16:42;6.80;;;3.90;;
77026;SDS011;65956;52.986;17.490;2023-04-24T15:19:08;6.10;;;4.30;;
77026;SDS011;65956;52.986;17.490;2023-04-24T15:21:35;7.90;;;4.90;;
77026;SDS011;65956;52.986;17.490;2023-04-24T15:24:02;6.70;;;3.80;;
77026;SDS011;65956;52.986;17.490;2023-04-24T15:26:28;5.60;;;4.10;;
77026;SDS011;65956;52.986;17.490;2023-04-24T15:28:54;5.70;;;3.80;;
77026;SDS011;65956;52.986;17.490;2023-04-24T15:31:20;7.20;;;5.00;;
77026;SDS011;65956;52.986;17.490;2023-04-24T15:33:51;5.90;;;3.80;;
77026;SDS011;65956;52.986;17.490;2023-04-24T15:36:17;7.30;;;4.40;;
77026;SDS011;65956;52.986;17.490;2023-04-24T15:38:44;5.40;;;3.40;;
77026;SDS011;65956;52.986;17.490;2023-04-24T15:41:11;5.50;;;3.50;;
77026;SDS011;65956;52.986;17.490;2023-04-24T15:43:37;5.40;;;3.30;;
77026;SDS011;65956;52.986;17.490;2023-04-24T15:46:08;4.90;;;3.30;;
77026;SDS011;65956;52.986;17.490;2023-04-24T15:48:35;5.40;;;3.20;;
77026;SDS011;65956;52.986;17.490;2023-04-24T15:51:01;5.70;;;3.20;;
77026;SDS011;65956;52.986;17.490;2023-04-24T15:53:27;6.50;;;3.60;;
77026;SDS011;65956;52.986;17.490;2023-04-24T15:55:53;5.20;;;3.10;;
77026;SDS011;65956;52.986;17.490;2023-04-24T15:58:21;4.40;;;2.90;;
77026;SDS011;65956;52.986;17.490;2023-04-24T16:00:47;8.70;;;4.60;;
77026;SDS011;65956;52.986;17.490;2023-04-24T16:03:13;4.20;;;2.60;;
77026;SDS011;65956;52.986;17.490;2023-04-24T16:05:40;5.60;;;3.40;;
77026;SDS011;65956;52.986;17.490;2023-04-24T16:08:06;4.70;;;2.90;;
77026;SDS011;65956;52.986;17.490;2023-04-24T16:10:32;8.30;;;4.90;;
77026;SDS011;65956;52.986;17.490;2023-04-24T16:12:58;6.00;;;2.90;;
77026;SDS011;65956;52.986;17.490;2023-04-24T16:15:28;5.30;;;2.80;;
77026;SDS011;65956;52.986;17.490;2023-04-24T16:17:55;6.40;;;3.10;;
77026;SDS011;65956;52.986;17.490;2023-04-24T16:20:21;7.10;;;3.60;;
77026;SDS011;65956;52.986;17.490;2023-04-24T16:22:47;9.50;;;5.40;;
77026;SDS011;65956;52.986;17.490;2023-04-24T16:25:13;5.60;;;2.70;;